BAW0608 LSZH-EGLL
Flight info
| Callsign | BAW0608 |
|---|---|
| Flight time | N/A |
| Altitude | 38000 |
| Route | DEGES Z1 ETAGO DCT LIRSU DCT DENUT L608 LOGAN |
| Aircraft | B77W/H-SDE1E2E3FGHIJ2J3J4J5M1RWXY/LB1D1 |
Departure
| Time | 2026-05-07 15:33 |
|---|---|
| Airport | Zürich Airport (LSZH) |
Arrival
| Time | N/A |
|---|---|
| Airport | London Heathrow Airport (EGLL) |
| Time | Latitude | Longitude | Altitude | Speed | Heading |
|---|---|---|---|---|---|
| 2026-05-07 15:19 | 47.46047 | 8.55528 | 1404 ft | 0 kts | 6° |
| 2026-05-07 15:25 | 47.46042 | 8.55528 | 1404 ft | 2 kts | 7° |
| 2026-05-07 15:25 | 47.46025 | 8.55523 | 1412 ft | 2 kts | 13° |
| 2026-05-07 15:26 | 47.46009 | 8.55517 | 1408 ft | 2 kts | 22° |
| 2026-05-07 15:26 | 47.45994 | 8.55506 | 1412 ft | 2 kts | 34° |
| 2026-05-07 15:26 | 47.45982 | 8.55491 | 1414 ft | 2 kts | 51° |
| 2026-05-07 15:26 | 47.45973 | 8.55470 | 1413 ft | 2 kts | 71° |
| 2026-05-07 15:27 | 47.45970 | 8.55446 | 1412 ft | 2 kts | 90° |
| 2026-05-07 15:27 | 47.45970 | 8.55432 | 1410 ft | 1 kts | 96° |
| 2026-05-07 15:28 | 47.45970 | 8.55433 | 1410 ft | 0 kts | 96° |
| 2026-05-07 15:28 | 47.45969 | 8.55442 | 1411 ft | 1 kts | 96° |
| 2026-05-07 15:28 | 47.45968 | 8.55461 | 1413 ft | 3 kts | 96° |
| 2026-05-07 15:28 | 47.45965 | 8.55495 | 1414 ft | 4 kts | 96° |
| 2026-05-07 15:29 | 47.45962 | 8.55544 | 1411 ft | 5 kts | 96° |
| 2026-05-07 15:29 | 47.45957 | 8.55608 | 1409 ft | 7 kts | 96° |
| 2026-05-07 15:29 | 47.45951 | 8.55691 | 1407 ft | 9 kts | 96° |
| 2026-05-07 15:29 | 47.45944 | 8.55793 | 1409 ft | 11 kts | 95° |
| 2026-05-07 15:30 | 47.45936 | 8.55912 | 1417 ft | 13 kts | 96° |
| 2026-05-07 15:30 | 47.45926 | 8.56046 | 1415 ft | 14 kts | 96° |
| 2026-05-07 15:30 | 47.45916 | 8.56195 | 1415 ft | 15 kts | 96° |
| 2026-05-07 15:30 | 47.45905 | 8.56352 | 1424 ft | 15 kts | 96° |
| 2026-05-07 15:31 | 47.45849 | 8.56482 | 1426 ft | 15 kts | 137° |
| 2026-05-07 15:31 | 47.45797 | 8.56623 | 1427 ft | 17 kts | 100° |
| 2026-05-07 15:31 | 47.45783 | 8.56806 | 1427 ft | 19 kts | 96° |
| 2026-05-07 15:31 | 47.45762 | 8.56995 | 1429 ft | 19 kts | 117° |
| 2026-05-07 15:32 | 47.45687 | 8.57029 | 1430 ft | 8 kts | 201° |
| 2026-05-07 15:32 | 47.45665 | 8.56961 | 1429 ft | 4 kts | 274° |
| 2026-05-07 15:32 | 47.45665 | 8.56958 | 1429 ft | 0 kts | 275° |
| 2026-05-07 15:32 | 47.45669 | 8.56899 | 1428 ft | 21 kts | 277° |
| 2026-05-07 15:33 | 47.45708 | 8.56381 | 1423 ft | 92 kts | 276° |
| 2026-05-07 15:33 | 47.45806 | 8.55032 | 1410 ft | 168 kts | 278° |
| 2026-05-07 15:33 | 47.45970 | 8.53198 | 1900 ft | 185 kts | 276° |
| 2026-05-07 15:33 | 47.45904 | 8.51255 | 2884 ft | 191 kts | 260° |
| 2026-05-07 15:34 | 47.45567 | 8.49398 | 3975 ft | 184 kts | 252° |
| 2026-05-07 15:34 | 47.45121 | 8.47639 | 4813 ft | 186 kts | 248° |
| 2026-05-07 15:34 | 47.44546 | 8.45822 | 5275 ft | 204 kts | 245° |
| 2026-05-07 15:34 | 47.43887 | 8.43868 | 5649 ft | 225 kts | 238° |
| 2026-05-07 15:35 | 47.43128 | 8.41727 | 5924 ft | 249 kts | 254° |
| 2026-05-07 15:35 | 47.42739 | 8.39190 | 6655 ft | 255 kts | 257° |
| 2026-05-07 15:35 | 47.41998 | 8.36803 | 7401 ft | 263 kts | 230° |
| 2026-05-07 15:35 | 47.40501 | 8.35240 | 8288 ft | 270 kts | 201° |
| 2026-05-07 15:36 | 47.38640 | 8.34897 | 9246 ft | 281 kts | 175° |
| 2026-05-07 15:36 | 47.36776 | 8.35846 | 10185 ft | 290 kts | 150° |
| 2026-05-07 15:36 | 47.35296 | 8.37943 | 10901 ft | 305 kts | 125° |
| 2026-05-07 15:36 | 47.34503 | 8.40893 | 11721 ft | 318 kts | 99° |
| 2026-05-07 15:37 | 47.34638 | 8.44174 | 12667 ft | 327 kts | 71° |
| 2026-05-07 15:37 | 47.35812 | 8.47054 | 13594 ft | 337 kts | 44° |
| 2026-05-07 15:37 | 47.37822 | 8.49043 | 13948 ft | 362 kts | 22° |
| 2026-05-07 15:37 | 47.40216 | 8.50586 | 14149 ft | 390 kts | 25° |
| 2026-05-07 15:38 | 47.42557 | 8.52781 | 14866 ft | 405 kts | 37° |
| 2026-05-07 15:38 | 47.44736 | 8.55448 | 15735 ft | 407 kts | 38° |
| 2026-05-07 15:38 | 47.45296 | 8.56125 | 15965 ft | 409 kts | 39° |
| 2026-05-07 15:38 | 47.47184 | 8.59296 | 16693 ft | 419 kts | 61° |
| 2026-05-07 15:39 | 47.48073 | 8.63386 | 17795 ft | 420 kts | 84° |
| 2026-05-07 15:39 | 47.48176 | 8.67731 | 18698 ft | 424 kts | 91° |
| 2026-05-07 15:39 | 47.47748 | 8.72060 | 19336 ft | 430 kts | 108° |
| 2026-05-07 15:39 | 47.46849 | 8.76266 | 19915 ft | 432 kts | 103° |
| 2026-05-07 15:40 | 47.46510 | 8.80728 | 20594 ft | 442 kts | 92° |
| 2026-05-07 15:40 | 47.46448 | 8.85274 | 21417 ft | 442 kts | 95° |
| 2026-05-07 15:40 | 47.45956 | 8.89750 | 22109 ft | 450 kts | 102° |
| 2026-05-07 15:40 | 47.45201 | 8.94258 | 22941 ft | 455 kts | 105° |
| 2026-05-07 15:41 | 47.44388 | 8.98809 | 23749 ft | 460 kts | 104° |
| 2026-05-07 15:41 | 47.43654 | 9.03427 | 24431 ft | 464 kts | 103° |
| 2026-05-07 15:41 | 47.42989 | 9.08123 | 25084 ft | 469 kts | 102° |
| 2026-05-07 15:41 | 47.42332 | 9.12878 | 25735 ft | 474 kts | 102° |
| 2026-05-07 15:42 | 47.41886 | 9.17699 | 26228 ft | 477 kts | 90° |
| 2026-05-07 15:42 | 47.42333 | 9.22540 | 26745 ft | 483 kts | 73° |
| 2026-05-07 15:42 | 47.43714 | 9.27060 | 27347 ft | 482 kts | 58° |
| 2026-05-07 15:42 | 47.45507 | 9.31274 | 27890 ft | 487 kts | 57° |
| 2026-05-07 15:43 | 47.47351 | 9.35482 | 28362 ft | 489 kts | 51° |
| 2026-05-07 15:43 | 47.49702 | 9.39122 | 28809 ft | 491 kts | 38° |
| 2026-05-07 15:43 | 47.53205 | 9.42530 | 29475 ft | 491 kts | 24° |
| 2026-05-07 15:44 | 47.56415 | 9.44217 | 30000 ft | 489 kts | 12° |
| 2026-05-07 15:44 | 47.59756 | 9.45127 | 30452 ft | 488 kts | 5° |
| 2026-05-07 15:44 | 47.62044 | 9.45443 | 30755 ft | 487 kts | 0° |
| 2026-05-07 15:44 | 47.65390 | 9.45545 | 31243 ft | 486 kts | 358° |
| 2026-05-07 15:45 | 47.68771 | 9.45664 | 31779 ft | 486 kts | 359° |
| 2026-05-07 15:45 | 47.72153 | 9.45839 | 32317 ft | 486 kts | 359° |
| 2026-05-07 15:45 | 47.75529 | 9.46039 | 32823 ft | 486 kts | 359° |
| 2026-05-07 15:45 | 47.78901 | 9.46237 | 33340 ft | 485 kts | 359° |
| 2026-05-07 15:46 | 47.85643 | 9.46414 | 34261 ft | 484 kts | 356° |
| 2026-05-07 15:46 | 47.89011 | 9.46370 | 34600 ft | 484 kts | 356° |
| 2026-05-07 15:46 | 47.92386 | 9.46314 | 34934 ft | 486 kts | 356° |
| 2026-05-07 15:47 | 47.95768 | 9.46270 | 35267 ft | 487 kts | 356° |
| 2026-05-07 15:47 | 47.99169 | 9.46244 | 35604 ft | 487 kts | 356° |
| 2026-05-07 15:47 | 48.02564 | 9.46231 | 35946 ft | 488 kts | 357° |
| 2026-05-07 15:47 | 48.05960 | 9.46224 | 36280 ft | 489 kts | 357° |
| 2026-05-07 15:48 | 48.09324 | 9.46218 | 36596 ft | 489 kts | 357° |
| 2026-05-07 15:48 | 48.12775 | 9.46211 | 36932 ft | 490 kts | 357° |
| 2026-05-07 15:48 | 48.13878 | 9.46208 | 37031 ft | 490 kts | 357° |
| 2026-05-07 15:48 | 48.17071 | 9.46199 | 37322 ft | 491 kts | 357° |
| 2026-05-07 15:49 | 48.20492 | 9.46195 | 37629 ft | 491 kts | 357° |
| 2026-05-07 15:49 | 48.23919 | 9.46195 | 37920 ft | 493 kts | 357° |
| 2026-05-07 15:49 | 48.27363 | 9.46196 | 37983 ft | 497 kts | 357° |
| 2026-05-07 15:50 | 48.34294 | 9.46198 | 38001 ft | 496 kts | 357° |
| 2026-05-07 15:50 | 48.41146 | 9.46201 | 38005 ft | 490 kts | 357° |
| 2026-05-07 15:51 | 48.47972 | 9.46201 | 38014 ft | 489 kts | 357° |
| 2026-05-07 15:51 | 48.54781 | 9.46194 | 38024 ft | 489 kts | 357° |
| 2026-05-07 15:52 | 48.61589 | 9.46117 | 38021 ft | 490 kts | 357° |
| 2026-05-07 15:52 | 48.68364 | 9.45932 | 38007 ft | 486 kts | 349° |
| 2026-05-07 15:52 | 48.71594 | 9.44642 | 38026 ft | 479 kts | 333° |
| 2026-05-07 15:53 | 48.74453 | 9.42133 | 38031 ft | 474 kts | 320° |
| 2026-05-07 15:53 | 48.76797 | 9.38664 | 38014 ft | 467 kts | 305° |
| 2026-05-07 15:53 | 48.77376 | 9.37513 | 38033 ft | 466 kts | 304° |
| 2026-05-07 15:54 | 48.81271 | 9.29631 | 38024 ft | 471 kts | 305° |
| 2026-05-07 15:54 | 48.85242 | 9.21674 | 38027 ft | 474 kts | 305° |
| 2026-05-07 15:55 | 48.89266 | 9.13704 | 38029 ft | 477 kts | 306° |
| 2026-05-07 15:55 | 48.93324 | 9.05692 | 38026 ft | 478 kts | 306° |
| 2026-05-07 15:56 | 48.97356 | 8.97709 | 38031 ft | 477 kts | 306° |
| 2026-05-07 15:56 | 49.01392 | 8.89692 | 38032 ft | 476 kts | 305° |
| 2026-05-07 15:57 | 49.05414 | 8.81676 | 38032 ft | 475 kts | 305° |
| 2026-05-07 15:57 | 49.09413 | 8.73679 | 38034 ft | 473 kts | 305° |
| 2026-05-07 15:58 | 49.13381 | 8.65721 | 38029 ft | 473 kts | 305° |
| 2026-05-07 15:58 | 49.15925 | 8.60606 | 38041 ft | 472 kts | 305° |
| 2026-05-07 15:59 | 49.19907 | 8.52582 | 38045 ft | 472 kts | 305° |
| 2026-05-07 15:59 | 49.23872 | 8.44566 | 38045 ft | 472 kts | 305° |
| 2026-05-07 16:00 | 49.27840 | 8.36520 | 38049 ft | 473 kts | 305° |
| 2026-05-07 16:00 | 49.31784 | 8.28500 | 38042 ft | 473 kts | 305° |
| 2026-05-07 16:01 | 49.35745 | 8.20421 | 38047 ft | 474 kts | 305° |
| 2026-05-07 16:01 | 49.39679 | 8.12373 | 38052 ft | 474 kts | 305° |
| 2026-05-07 16:02 | 49.43643 | 8.04237 | 38040 ft | 475 kts | 305° |
| 2026-05-07 16:02 | 49.47591 | 7.96112 | 38058 ft | 475 kts | 305° |
| 2026-05-07 16:03 | 49.51537 | 7.87963 | 38043 ft | 475 kts | 305° |
| 2026-05-07 16:03 | 49.54078 | 7.82702 | 38046 ft | 475 kts | 305° |
| 2026-05-07 16:04 | 49.58023 | 7.74517 | 38047 ft | 475 kts | 305° |
| 2026-05-07 16:04 | 49.61933 | 7.66380 | 38039 ft | 475 kts | 304° |
| 2026-05-07 16:05 | 49.65862 | 7.58175 | 38047 ft | 475 kts | 304° |
| 2026-05-07 16:05 | 49.69789 | 7.49949 | 38044 ft | 475 kts | 304° |
| 2026-05-07 16:06 | 49.73703 | 7.41725 | 38038 ft | 475 kts | 304° |
| 2026-05-07 16:06 | 49.77616 | 7.33479 | 38041 ft | 475 kts | 304° |
| 2026-05-07 16:07 | 49.81493 | 7.25284 | 38046 ft | 475 kts | 304° |
| 2026-05-07 16:07 | 49.85387 | 7.17026 | 38051 ft | 475 kts | 304° |
| 2026-05-07 16:08 | 49.89285 | 7.08734 | 38046 ft | 475 kts | 304° |
| 2026-05-07 16:08 | 49.91812 | 7.03342 | 38048 ft | 475 kts | 304° |
| 2026-05-07 16:09 | 49.95686 | 6.95059 | 38035 ft | 476 kts | 304° |
| 2026-05-07 16:09 | 49.99576 | 6.86714 | 38037 ft | 477 kts | 304° |
| 2026-05-07 16:10 | 50.03464 | 6.78348 | 38034 ft | 477 kts | 304° |
| 2026-05-07 16:10 | 50.07344 | 6.69974 | 38040 ft | 477 kts | 304° |
| 2026-05-07 16:11 | 50.11111 | 6.61814 | 38032 ft | 477 kts | 304° |
| 2026-05-07 16:11 | 50.14985 | 6.53399 | 38020 ft | 477 kts | 304° |
| 2026-05-07 16:12 | 50.18837 | 6.44967 | 38016 ft | 476 kts | 302° |
| 2026-05-07 16:12 | 50.22378 | 6.36226 | 38009 ft | 476 kts | 300° |
| 2026-05-07 16:13 | 50.25814 | 6.27384 | 38013 ft | 475 kts | 299° |
| 2026-05-07 16:13 | 50.28175 | 6.21302 | 38013 ft | 475 kts | 300° |
| 2026-05-07 16:14 | 50.31620 | 6.12463 | 38010 ft | 476 kts | 300° |
| 2026-05-07 16:14 | 50.35070 | 6.03622 | 38023 ft | 475 kts | 300° |
| 2026-05-07 16:15 | 50.38517 | 5.94767 | 38010 ft | 476 kts | 300° |
| 2026-05-07 16:15 | 50.41953 | 5.85907 | 38026 ft | 475 kts | 299° |
| 2026-05-07 16:16 | 50.45367 | 5.77073 | 38035 ft | 476 kts | 299° |
| 2026-05-07 16:16 | 50.48791 | 5.68179 | 38054 ft | 476 kts | 299° |
| 2026-05-07 16:17 | 50.52209 | 5.59271 | 38067 ft | 476 kts | 299° |
| 2026-05-07 16:17 | 50.55627 | 5.50332 | 38075 ft | 477 kts | 299° |
| 2026-05-07 16:18 | 50.59037 | 5.41386 | 38081 ft | 477 kts | 299° |